createdAt,value
2023-06-24T00:00:44.283Z,1014.70
2023-06-24T00:01:44.601Z,1014.66
2023-06-24T00:02:45.685Z,1014.77
2023-06-24T00:03:44.933Z,1014.75
2023-06-24T00:04:45.040Z,1014.72
2023-06-24T00:05:45.971Z,1014.71
2023-06-24T00:06:45.467Z,1014.73
2023-06-24T00:07:46.308Z,1014.74
2023-06-24T00:08:45.745Z,1014.73
2023-06-24T00:09:45.976Z,1014.69
2023-06-24T00:10:46.080Z,1014.74
2023-06-24T00:11:46.268Z,1014.78
2023-06-24T00:12:46.494Z,1014.76
2023-06-24T00:13:46.710Z,1014.76
2023-06-24T00:14:46.946Z,1014.75
2023-06-24T00:15:47.189Z,1014.74
2023-06-24T00:16:48.167Z,1014.75
2023-06-24T00:17:48.247Z,1014.79
2023-06-24T00:18:47.783Z,1014.76
2023-06-24T00:19:50.113Z,1014.77
2023-06-24T00:20:48.159Z,1014.70
2023-06-24T00:21:48.342Z,1014.70
2023-06-24T00:22:48.548Z,1014.70
2023-06-24T00:23:48.725Z,1014.66
2023-06-24T00:24:48.903Z,1014.77
2023-06-24T00:25:50.193Z,1014.75
2023-06-24T00:26:49.239Z,1014.71
2023-06-24T00:27:49.442Z,1014.68
2023-06-24T00:28:49.617Z,1014.64
2023-06-24T00:29:49.790Z,1014.66
2023-06-24T00:30:49.965Z,1014.69
2023-06-24T00:31:50.253Z,1014.68
2023-06-24T00:32:50.416Z,1014.67
2023-06-24T00:33:51.209Z,1014.71
2023-06-24T00:34:51.868Z,1014.70
2023-06-24T00:35:50.937Z,1014.66
2023-06-24T00:36:51.152Z,1014.63
2023-06-24T00:37:52.186Z,1014.71
2023-06-24T00:38:51.498Z,1014.69
2023-06-24T00:39:52.708Z,1014.67
2023-06-24T00:40:52.714Z,1014.72
2023-06-24T00:41:52.118Z,1014.74
2023-06-24T00:42:52.360Z,1014.81
2023-06-24T00:43:52.525Z,1014.88
2023-06-24T00:44:52.707Z,1014.84
2023-06-24T00:45:52.900Z,1014.78
2023-06-24T00:46:54.038Z,1014.84
2023-06-24T00:47:53.753Z,1014.88
2023-06-24T00:48:53.464Z,1014.88
2023-06-24T00:49:54.200Z,1014.85
2023-06-24T00:50:53.791Z,1014.91
2023-06-24T00:51:53.942Z,1014.81
2023-06-24T00:52:54.119Z,1014.84
2023-06-24T00:53:54.277Z,1014.78
2023-06-24T00:54:55.051Z,1014.84
2023-06-24T00:55:54.666Z,1014.84
2023-06-24T00:56:54.838Z,1014.81
2023-06-24T00:57:55.049Z,1014.86
2023-06-24T00:58:55.247Z,1014.82
2023-06-24T00:59:55.723Z,1014.79
2023-06-24T01:00:55.626Z,1014.88
2023-06-24T01:01:56.713Z,1014.91
2023-06-24T01:02:56.728Z,1014.88
2023-06-24T01:03:56.185Z,1014.85
2023-06-24T01:04:56.427Z,1014.82
2023-06-24T01:05:58.185Z,1014.88
2023-06-24T01:06:56.791Z,1014.86
2023-06-24T01:07:57.182Z,1014.87
2023-06-24T01:08:57.116Z,1014.83
2023-06-24T01:09:57.341Z,1014.87
2023-06-24T01:10:57.550Z,1014.85
2023-06-24T01:11:57.806Z,1014.81
2023-06-24T01:12:57.920Z,1014.80
2023-06-24T01:13:58.049Z,1014.84
2023-06-24T01:14:59.247Z,1014.82
2023-06-24T01:15:58.390Z,1014.94
2023-06-24T01:16:58.733Z,1014.88
2023-06-24T01:17:59.757Z,1014.90
2023-06-24T01:18:58.953Z,1014.90
2023-06-24T01:19:59.153Z,1014.89
2023-06-24T01:21:00.183Z,1014.91
2023-06-24T01:21:59.620Z,1014.89
2023-06-24T01:22:59.796Z,1014.89
2023-06-24T01:24:00.676Z,1014.89
2023-06-24T01:25:00.228Z,1014.87
2023-06-24T01:26:01.215Z,1014.84
2023-06-24T01:27:00.634Z,1014.89
2023-06-24T01:28:01.684Z,1014.83
2023-06-24T01:29:01.726Z,1014.84
2023-06-24T01:30:01.167Z,1014.82
2023-06-24T01:31:01.336Z,1014.85
2023-06-24T01:32:03.177Z,1014.78
2023-06-24T01:33:02.309Z,1014.75
2023-06-24T01:34:03.560Z,1014.76
2023-06-24T01:35:02.679Z,1014.70
2023-06-24T01:36:02.216Z,1014.70
2023-06-24T01:37:02.375Z,1014.73
2023-06-24T01:38:02.514Z,1014.70
2023-06-24T01:39:03.225Z,1014.63
2023-06-24T01:40:02.850Z,1014.68
2023-06-24T01:41:03.688Z,1014.68
2023-06-24T01:42:04.048Z,1014.67
2023-06-24T01:43:36.680Z,1014.62
2023-06-24T01:44:04.274Z,1014.64
2023-06-24T01:45:03.643Z,1014.64
2023-06-24T01:46:03.777Z,1014.59
2023-06-24T01:47:04.887Z,1014.62
2023-06-24T01:48:04.088Z,1014.67
2023-06-24T01:49:04.302Z,1014.64
2023-06-24T01:50:04.476Z,1014.67
2023-06-24T01:51:05.270Z,1014.66
2023-06-24T01:52:04.784Z,1014.72
2023-06-24T01:53:04.917Z,1014.66
2023-06-24T01:54:05.079Z,1014.76
2023-06-24T01:55:05.264Z,1014.71
2023-06-24T01:56:05.426Z,1014.68
2023-06-24T01:57:06.282Z,1014.76
2023-06-24T01:58:05.809Z,1014.77
2023-06-24T01:59:05.974Z,1014.79
2023-06-24T02:00:06.130Z,1014.79
2023-06-24T02:01:06.428Z,1014.84
2023-06-24T02:02:06.519Z,1014.80
2023-06-24T02:03:07.312Z,1014.81
2023-06-24T02:04:07.786Z,1014.82
2023-06-24T02:05:07.027Z,1014.84
2023-06-24T02:06:07.199Z,1014.76
2023-06-24T02:07:07.448Z,1014.66
2023-06-24T02:08:08.742Z,1014.76
2023-06-24T02:09:07.749Z,1014.68
2023-06-24T02:10:07.928Z,1014.72
2023-06-24T02:11:08.741Z,1014.72
2023-06-24T02:12:08.262Z,1014.72
2023-06-24T02:13:09.254Z,1014.73
2023-06-24T02:14:09.279Z,1014.72
2023-06-24T02:15:08.875Z,1014.66
2023-06-24T02:16:09.769Z,1014.73
2023-06-24T02:17:09.151Z,1014.69
2023-06-24T02:18:10.252Z,1014.74
2023-06-24T02:19:09.484Z,1014.66
2023-06-24T02:20:10.243Z,1014.78
2023-06-24T02:21:09.742Z,1014.71
2023-06-24T02:22:09.903Z,1014.70
2023-06-24T02:23:10.769Z,1014.71
2023-06-24T02:24:10.749Z,1014.70
2023-06-24T02:25:11.748Z,1014.76
2023-06-24T02:26:10.493Z,1014.79
2023-06-24T02:27:12.263Z,1014.79
2023-06-24T02:28:10.864Z,1014.75
2023-06-24T02:29:11.038Z,1014.82
2023-06-24T02:30:11.750Z,1014.87
2023-06-24T02:31:12.773Z,1014.80
2023-06-24T02:32:11.541Z,1014.77
2023-06-24T02:33:11.676Z,1014.88
2023-06-24T02:34:14.750Z,1014.85
2023-06-24T02:35:12.314Z,1014.80
2023-06-24T02:36:12.102Z,1014.86
2023-06-24T02:37:12.288Z,1014.83
2023-06-24T02:38:12.430Z,1014.81
2023-06-24T02:39:12.598Z,1014.83
2023-06-24T02:40:12.774Z,1014.84
2023-06-24T02:41:12.973Z,1014.78
2023-06-24T02:42:13.151Z,1014.83
2023-06-24T02:43:13.346Z,1014.81
2023-06-24T02:44:13.542Z,1014.79
2023-06-24T02:45:13.768Z,1014.79
2023-06-24T02:46:16.398Z,1014.78
2023-06-24T02:47:16.321Z,1014.78
2023-06-24T02:48:15.303Z,1014.80
2023-06-24T02:49:14.472Z,1014.79
2023-06-24T02:50:14.695Z,1014.82
2023-06-24T02:51:14.912Z,1014.79
2023-06-24T02:52:15.093Z,1014.83
2023-06-24T02:53:15.253Z,1014.77
2023-06-24T02:54:15.440Z,1014.84
2023-06-24T02:55:15.648Z,1014.80
2023-06-24T02:56:16.321Z,1014.76
2023-06-24T02:57:15.985Z,1014.84
2023-06-24T02:58:17.747Z,1014.86
2023-06-24T02:59:17.302Z,1014.79
2023-06-24T03:00:18.902Z,1014.83
2023-06-24T03:01:16.839Z,1014.88
2023-06-24T03:02:17.030Z,1014.81
2023-06-24T03:03:17.857Z,1014.87
2023-06-24T03:04:17.454Z,1014.85
2023-06-24T03:05:18.816Z,1014.78
2023-06-24T03:06:18.968Z,1014.77
2023-06-24T03:07:18.001Z,1014.81
2023-06-24T03:08:19.260Z,1014.81
2023-06-24T03:09:18.314Z,1014.88
2023-06-24T03:10:18.507Z,1014.81
2023-06-24T03:11:18.670Z,1014.85
2023-06-24T03:12:18.911Z,1014.85
2023-06-24T03:13:20.337Z,1014.83
2023-06-24T03:14:19.344Z,1014.81
2023-06-24T03:15:19.497Z,1014.76
2023-06-24T03:16:21.300Z,1014.82
2023-06-24T03:17:20.698Z,1014.77
2023-06-24T03:18:20.816Z,1014.87
2023-06-24T03:19:20.208Z,1014.84
2023-06-24T03:20:21.262Z,1014.88
2023-06-24T03:21:20.616Z,1014.89
2023-06-24T03:22:20.788Z,1014.85
2023-06-24T03:23:20.927Z,1014.78
2023-06-24T03:24:21.173Z,1014.83
2023-06-24T03:25:24.760Z,1014.78
2023-06-24T03:26:22.260Z,1014.82
2023-06-24T03:27:21.622Z,1014.80
2023-06-24T03:28:21.792Z,1014.81
2023-06-24T03:29:22.760Z,1014.89
2023-06-24T03:30:22.760Z,1014.85
2023-06-24T03:31:22.291Z,1014.80
2023-06-24T03:32:23.474Z,1014.76
2023-06-24T03:33:22.678Z,1014.76
2023-06-24T03:34:22.815Z,1014.78
2023-06-24T03:35:22.966Z,1014.73
2023-06-24T03:36:23.132Z,1014.79
2023-06-24T03:37:23.245Z,1014.78
2023-06-24T03:38:23.368Z,1014.72
2023-06-24T03:39:24.313Z,1014.76
2023-06-24T03:40:24.258Z,1014.75
2023-06-24T03:41:23.903Z,1014.77
2023-06-24T03:42:24.766Z,1014.76
2023-06-24T03:43:24.244Z,1014.75
2023-06-24T03:44:25.383Z,1014.68
2023-06-24T03:45:24.516Z,1014.61
2023-06-24T03:46:24.740Z,1014.67
2023-06-24T03:47:25.843Z,1014.65
2023-06-24T03:48:25.097Z,1014.69
2023-06-24T03:49:25.250Z,1014.69
2023-06-24T03:50:27.262Z,1014.63
2023-06-24T03:51:25.633Z,1014.62
2023-06-24T03:52:25.808Z,1014.60
2023-06-24T03:53:26.767Z,1014.62
2023-06-24T03:54:26.148Z,1014.56
2023-06-24T03:55:27.764Z,1014.57
2023-06-24T03:56:26.832Z,1014.56
2023-06-24T03:57:26.753Z,1014.54
2023-06-24T03:58:28.775Z,1014.57
2023-06-24T03:59:27.117Z,1014.46
2023-06-24T04:00:48.267Z,1014.53
2023-06-24T04:01:28.525Z,1014.53
2023-06-24T04:02:27.586Z,1014.53
2023-06-24T04:03:28.787Z,1014.41
2023-06-24T04:04:27.950Z,1014.46
2023-06-24T04:05:28.142Z,1014.41
2023-06-24T04:06:28.301Z,1014.46
2023-06-24T04:07:28.599Z,1014.49
2023-06-24T04:08:28.720Z,1014.49
2023-06-24T04:09:28.880Z,1014.50
2023-06-24T04:10:29.053Z,1014.51
2023-06-24T04:11:29.213Z,1014.49
2023-06-24T04:12:30.314Z,1014.44
2023-06-24T04:13:29.585Z,1014.42
2023-06-24T04:14:30.312Z,1014.40
2023-06-24T04:15:29.961Z,1014.41
2023-06-24T04:16:30.100Z,1014.42
2023-06-24T04:17:30.293Z,1014.40
2023-06-24T04:18:30.470Z,1014.38
2023-06-24T04:19:31.281Z,1014.35
2023-06-24T04:20:30.817Z,1014.28
2023-06-24T04:21:30.987Z,1014.33
2023-06-24T04:22:31.118Z,1014.35
2023-06-24T04:23:33.154Z,1014.33
2023-06-24T04:24:31.492Z,1014.32
2023-06-24T04:25:31.692Z,1014.32
2023-06-24T04:26:32.818Z,1014.25
2023-06-24T04:27:32.081Z,1014.32
2023-06-24T04:28:32.241Z,1014.29
2023-06-24T04:29:32.832Z,1014.30
2023-06-24T04:30:32.584Z,1014.21
2023-06-24T04:31:32.819Z,1014.29
2023-06-24T04:32:32.955Z,1014.28
2023-06-24T04:33:33.045Z,1014.33
2023-06-24T04:34:33.195Z,1014.33
2023-06-24T04:35:33.612Z,1014.26
2023-06-24T04:36:34.799Z,1014.28
2023-06-24T04:37:34.318Z,1014.20
2023-06-24T04:38:33.863Z,1014.23
2023-06-24T04:39:34.819Z,1014.16
2023-06-24T04:40:34.199Z,1014.16
2023-06-24T04:41:35.290Z,1014.15
2023-06-24T04:42:34.534Z,1014.01
2023-06-24T04:43:36.300Z,1014.11
2023-06-24T04:44:35.321Z,1013.99
2023-06-24T04:45:35.387Z,1013.95
2023-06-24T04:46:35.343Z,1013.97
2023-06-24T04:47:35.326Z,1013.92
2023-06-24T04:48:36.342Z,1013.94
2023-06-24T04:49:37.189Z,1013.94
2023-06-24T04:50:36.038Z,1013.99
2023-06-24T04:51:36.041Z,1013.95
2023-06-24T04:52:36.341Z,1014.00
2023-06-24T04:53:36.485Z,1013.99
2023-06-24T04:54:37.328Z,1013.95
2023-06-24T04:55:37.103Z,1013.84
2023-06-24T04:56:37.065Z,1013.98
2023-06-24T04:57:37.175Z,1013.90
2023-06-24T04:58:37.362Z,1013.95
2023-06-24T04:59:37.552Z,1013.84
2023-06-24T05:00:38.392Z,1013.82
2023-06-24T05:01:38.654Z,1013.81
2023-06-24T05:02:38.836Z,1013.78
2023-06-24T05:03:38.813Z,1013.75
2023-06-24T05:04:39.342Z,1013.81
2023-06-24T05:05:38.923Z,1013.79
2023-06-24T05:06:38.883Z,1013.72
2023-06-24T05:07:38.965Z,1013.72
2023-06-24T05:08:39.168Z,1013.67
2023-06-24T05:09:39.352Z,1013.64
2023-06-24T05:10:40.333Z,1013.62
2023-06-24T05:11:39.810Z,1013.56
2023-06-24T05:12:40.792Z,1013.59
2023-06-24T05:13:40.069Z,1013.53
2023-06-24T05:14:40.442Z,1013.48
2023-06-24T05:15:41.297Z,1013.34
2023-06-24T05:16:40.603Z,1013.28
2023-06-24T05:17:41.841Z,1013.13
2023-06-24T05:18:41.791Z,1013.03
2023-06-24T05:19:41.800Z,1013.04
2023-06-24T05:20:42.291Z,1013.05
2023-06-24T05:21:41.857Z,1013.00
2023-06-24T05:22:41.926Z,1012.93
2023-06-24T05:23:42.914Z,1012.87
2023-06-24T05:24:42.846Z,1012.79
2023-06-24T05:25:43.301Z,1012.81
2023-06-24T05:26:42.732Z,1012.79
2023-06-24T05:27:42.940Z,1012.83
2023-06-24T05:28:44.299Z,1012.84
2023-06-24T05:29:43.837Z,1012.84
2023-06-24T05:30:44.302Z,1012.82
2023-06-24T05:31:44.344Z,1012.88
2023-06-24T05:32:44.392Z,1012.81
2023-06-24T05:33:44.043Z,1012.82
2023-06-24T05:34:44.203Z,1012.79
2023-06-24T05:35:44.358Z,1012.69
2023-06-24T05:36:44.519Z,1012.76
2023-06-24T05:37:45.361Z,1012.71
2023-06-24T05:38:46.300Z,1012.68
2023-06-24T05:39:45.056Z,1012.60
2023-06-24T05:40:46.799Z,1012.60
2023-06-24T05:41:45.420Z,1012.60
2023-06-24T05:42:46.173Z,1012.56
2023-06-24T05:43:45.815Z,1012.53
2023-06-24T05:44:46.849Z,1012.53
2023-06-24T05:45:46.803Z,1012.37
2023-06-24T05:46:46.343Z,1012.40
2023-06-24T05:47:47.366Z,1012.39
2023-06-24T05:48:47.354Z,1012.40
2023-06-24T05:49:46.766Z,1012.33
2023-06-24T05:50:48.808Z,1012.29
2023-06-24T05:51:47.106Z,1012.27
2023-06-24T05:52:48.310Z,1012.19
2023-06-24T05:53:48.306Z,1012.20
2023-06-24T05:54:47.559Z,1012.17
2023-06-24T05:55:47.860Z,1012.18
2023-06-24T05:56:47.920Z,1012.08
2023-06-24T05:57:48.083Z,1012.09
2023-06-24T05:58:48.250Z,1012.03
2023-06-24T05:59:48.432Z,1012.06
2023-06-24T06:00:48.592Z,1012.02
2023-06-24T06:01:48.853Z,1011.99
2023-06-24T06:02:49.942Z,1011.95
2023-06-24T06:03:49.163Z,1011.86
2023-06-24T06:04:49.325Z,1011.87
2023-06-24T06:05:49.515Z,1011.93
2023-06-24T06:06:49.741Z,1011.93
2023-06-24T06:07:49.938Z,1011.97
2023-06-24T06:08:50.131Z,1011.94
2023-06-24T06:09:50.330Z,1011.97
2023-06-24T06:10:52.970Z,1011.96
2023-06-24T06:11:51.309Z,1011.96
2023-06-24T06:12:51.368Z,1011.98
2023-06-24T06:13:52.808Z,1011.95
2023-06-24T06:14:51.232Z,1011.93
2023-06-24T06:15:51.427Z,1011.92
2023-06-24T06:16:51.599Z,1011.94
2023-06-24T06:17:52.342Z,1011.95
2023-06-24T06:18:51.903Z,1011.90
2023-06-24T06:19:52.812Z,1011.92
2023-06-24T06:20:52.257Z,1011.85
2023-06-24T06:21:52.357Z,1011.85
2023-06-24T06:22:53.812Z,1011.85
2023-06-24T06:23:53.307Z,1011.81
2023-06-24T06:24:55.825Z,1011.78
2023-06-24T06:25:53.180Z,1011.79
2023-06-24T06:26:53.357Z,1011.76
2023-06-24T06:27:53.585Z,1011.73
2023-06-24T06:28:53.754Z,1011.79
2023-06-24T06:29:53.912Z,1011.71
2023-06-24T06:30:54.858Z,1011.78
2023-06-24T06:31:54.930Z,1011.71
2023-06-24T06:32:54.945Z,1011.75
2023-06-24T06:33:55.329Z,1011.66
2023-06-24T06:34:54.750Z,1011.65
2023-06-24T06:35:54.938Z,1011.57
2023-06-24T06:36:55.091Z,1011.60
2023-06-24T06:37:57.471Z,1011.50
2023-06-24T06:38:56.312Z,1011.56
2023-06-24T06:39:56.624Z,1011.52
2023-06-24T06:40:55.779Z,1011.43
2023-06-24T06:41:55.948Z,1011.37
2023-06-24T06:42:56.825Z,1011.36
2023-06-24T06:43:56.380Z,1011.34
2023-06-24T06:44:56.592Z,1011.33
2023-06-24T06:45:57.467Z,1011.31
2023-06-24T06:46:57.880Z,1011.38
2023-06-24T06:47:57.211Z,1011.33
2023-06-24T06:48:57.419Z,1011.37
2023-06-24T06:49:58.343Z,1011.31
2023-06-24T06:50:57.783Z,1011.28
2023-06-24T06:51:58.824Z,1011.29
2023-06-24T06:52:59.251Z,1011.28
2023-06-24T06:53:59.302Z,1011.28
2023-06-24T06:54:58.495Z,1011.27
2023-06-24T06:55:58.710Z,1011.19
2023-06-24T06:56:59.837Z,1011.25
2023-06-24T06:57:59.116Z,1011.16
2023-06-24T06:58:59.836Z,1011.18
2023-06-24T06:59:59.505Z,1011.15
2023-06-24T07:00:59.687Z,1011.21
2023-06-24T07:01:59.872Z,1011.20
2023-06-24T07:03:00.869Z,1011.22
2023-06-24T07:04:00.283Z,1011.23
2023-06-24T07:05:00.456Z,1011.16
2023-06-24T07:06:01.355Z,1011.18
2023-06-24T07:07:01.437Z,1011.13
2023-06-24T07:08:01.001Z,1011.14
2023-06-24T07:09:01.826Z,1010.99
2023-06-24T07:10:02.334Z,1011.03
2023-06-24T07:11:02.357Z,1011.00
2023-06-24T07:12:02.633Z,1010.94
2023-06-24T07:13:01.783Z,1010.93
2023-06-24T07:14:01.975Z,1010.98
2023-06-24T07:15:02.416Z,1010.90
2023-06-24T07:16:02.365Z,1010.98
2023-06-24T07:17:03.380Z,1010.94
2023-06-24T07:18:02.778Z,1010.94
2023-06-24T07:19:02.874Z,1010.96
2023-06-24T07:20:03.111Z,1010.94
2023-06-24T07:21:03.199Z,1010.92
2023-06-24T07:22:03.463Z,1010.86
2023-06-24T07:23:04.382Z,1010.84
2023-06-24T07:24:03.798Z,1010.79
2023-06-24T07:25:04.020Z,1010.85
2023-06-24T07:26:05.706Z,1010.82
2023-06-24T07:27:04.267Z,1010.83
2023-06-24T07:28:04.471Z,1010.83
2023-06-24T07:29:09.280Z,1010.86
2023-06-24T07:30:05.876Z,1010.83
2023-06-24T07:31:05.062Z,1010.85
2023-06-24T07:32:05.156Z,1010.85
2023-06-24T07:33:05.425Z,1010.85
2023-06-24T07:34:06.453Z,1010.87
2023-06-24T07:35:06.370Z,1010.88
2023-06-24T07:36:05.898Z,1010.85
2023-06-24T07:37:15.252Z,1010.93
2023-06-24T07:38:08.249Z,1010.98
2023-06-24T07:39:06.446Z,1010.93
2023-06-24T07:40:07.383Z,1010.93
2023-06-24T07:41:06.808Z,1010.88
2023-06-24T07:42:06.979Z,1010.90
2023-06-24T07:43:07.162Z,1010.96
2023-06-24T07:44:07.346Z,1010.89
2023-06-24T07:45:07.548Z,1010.93
2023-06-24T07:46:08.340Z,1010.87
2023-06-24T07:47:09.890Z,1010.92
2023-06-24T07:48:08.129Z,1010.88
2023-06-24T07:49:09.345Z,1010.81
2023-06-24T07:50:09.386Z,1010.81
2023-06-24T07:51:08.647Z,1010.82
2023-06-24T07:52:08.823Z,1010.74
2023-06-24T07:53:09.850Z,1010.72
2023-06-24T07:54:09.126Z,1010.70
2023-06-24T07:55:10.214Z,1010.69
2023-06-24T07:56:09.499Z,1010.60
2023-06-24T07:57:10.345Z,1010.65
2023-06-24T07:58:09.866Z,1010.64
2023-06-24T07:59:10.021Z,1010.62
2023-06-24T08:00:10.178Z,1010.57
2023-06-24T08:01:10.326Z,1010.54
2023-06-24T08:02:10.524Z,1010.58
2023-06-24T08:03:11.058Z,1010.54
2023-06-24T08:04:11.421Z,1010.53
2023-06-24T08:05:11.857Z,1010.47
2023-06-24T08:06:11.849Z,1010.53
2023-06-24T08:07:12.447Z,1010.41
2023-06-24T08:08:13.719Z,1010.44
2023-06-24T08:09:13.893Z,1010.44
2023-06-24T08:10:12.123Z,1010.42
2023-06-24T08:11:12.314Z,1010.48
2023-06-24T08:12:12.467Z,1010.42
2023-06-24T08:13:13.656Z,1010.31
2023-06-24T08:14:12.791Z,1010.36
2023-06-24T08:15:12.972Z,1010.35
2023-06-24T08:16:13.123Z,1010.35
2023-06-24T08:17:13.304Z,1010.35
2023-06-24T08:18:14.225Z,1010.33
2023-06-24T08:19:13.647Z,1010.22
2023-06-24T08:20:13.917Z,1010.18
2023-06-24T08:21:14.903Z,1010.19
2023-06-24T08:22:14.866Z,1010.13
2023-06-24T08:23:14.396Z,1010.15
2023-06-24T08:24:14.566Z,1010.16
2023-06-24T08:25:17.868Z,1010.15
2023-06-24T08:26:17.600Z,1010.09
2023-06-24T08:27:17.866Z,1010.04
2023-06-24T08:28:15.352Z,1010.10
2023-06-24T08:29:15.543Z,1009.99
2023-06-24T08:30:15.700Z,1010.06
2023-06-24T08:31:15.937Z,1010.02
2023-06-24T08:32:16.862Z,1010.02
2023-06-24T08:33:16.748Z,1009.96
2023-06-24T08:34:16.362Z,1009.94
2023-06-24T08:35:16.526Z,1009.94
2023-06-24T08:36:16.687Z,1009.89
2023-06-24T08:37:16.853Z,1009.95
2023-06-24T08:38:17.868Z,1009.93
2023-06-24T08:39:17.455Z,1009.95
2023-06-24T08:40:17.393Z,1010.04
2023-06-24T08:41:17.565Z,1010.04
2023-06-24T08:42:17.739Z,1010.10
2023-06-24T08:43:18.415Z,1010.10
2023-06-24T08:44:18.082Z,1010.11
2023-06-24T08:45:18.420Z,1010.09
2023-06-24T08:46:20.371Z,1010.03
2023-06-24T08:47:20.453Z,1010.09
2023-06-24T08:48:18.879Z,1010.01
2023-06-24T08:49:19.537Z,1010.02
2023-06-24T08:50:19.196Z,1010.02
2023-06-24T08:51:21.743Z,1010.03
2023-06-24T08:52:20.386Z,1010.06
2023-06-24T08:53:19.802Z,1010.02
2023-06-24T08:54:19.978Z,1010.02
2023-06-24T08:55:21.571Z,1010.04
2023-06-24T08:56:20.363Z,1010.03
2023-06-24T08:57:22.381Z,1010.06
2023-06-24T08:58:21.441Z,1010.08
2023-06-24T08:59:20.879Z,1010.12
2023-06-24T09:00:21.091Z,1010.12
2023-06-24T09:01:23.959Z,1010.20
2023-06-24T09:02:23.590Z,1010.23
2023-06-24T09:03:21.786Z,1010.14
2023-06-24T09:04:21.857Z,1010.30
2023-06-24T09:05:22.055Z,1010.36
2023-06-24T09:06:22.250Z,1010.40
2023-06-24T09:07:23.401Z,1010.46
2023-06-24T09:08:22.564Z,1010.39
2023-06-24T09:09:23.425Z,1010.43
2023-06-24T09:10:24.883Z,1010.47
2023-06-24T09:11:23.155Z,1010.46
2023-06-24T09:12:23.324Z,1010.37
2023-06-24T09:13:23.490Z,1010.34
2023-06-24T09:14:23.645Z,1010.39
2023-06-24T09:15:23.797Z,1010.44
2023-06-24T09:16:24.882Z,1010.43
2023-06-24T09:17:24.490Z,1010.40
2023-06-24T09:18:24.442Z,1010.44
2023-06-24T09:19:25.881Z,1010.48
2023-06-24T09:20:24.628Z,1010.49
2023-06-24T09:21:25.397Z,1010.55
2023-06-24T09:22:24.910Z,1010.45
2023-06-24T09:23:25.073Z,1010.42
2023-06-24T09:24:25.935Z,1010.38
2023-06-24T09:25:26.420Z,1010.28
2023-06-24T09:26:27.433Z,1010.24
2023-06-24T09:27:25.923Z,1010.24
2023-06-24T09:28:26.892Z,1010.17
2023-06-24T09:29:28.131Z,1010.20
2023-06-24T09:30:27.431Z,1010.22
2023-06-24T09:31:26.732Z,1010.23
2023-06-24T09:32:27.068Z,1010.27
2023-06-24T09:33:27.153Z,1010.28
2023-06-24T09:34:27.297Z,1010.37
2023-06-24T09:35:27.427Z,1010.39
2023-06-24T09:36:29.244Z,1010.34
2023-06-24T09:37:27.799Z,1010.33
2023-06-24T09:38:28.448Z,1010.34
2023-06-24T09:39:30.383Z,1010.24
2023-06-24T09:40:29.941Z,1010.21
2023-06-24T09:41:28.457Z,1010.17
2023-06-24T09:42:28.657Z,1010.04
2023-06-24T09:43:28.844Z,1010.00
2023-06-24T09:44:29.023Z,1009.89
2023-06-24T09:45:29.974Z,1009.82
2023-06-24T09:46:29.461Z,1009.81
2023-06-24T09:47:30.466Z,1009.72
2023-06-24T09:48:29.883Z,1009.78
2023-06-24T09:49:30.758Z,1009.87
2023-06-24T09:50:30.296Z,1009.92
2023-06-24T09:51:30.957Z,1009.92
2023-06-24T09:52:30.637Z,1009.95
2023-06-24T09:53:31.437Z,1010.02
2023-06-24T09:54:34.190Z,1010.12
2023-06-24T09:55:33.048Z,1010.17
2023-06-24T09:56:31.379Z,1010.17
2023-06-24T09:57:32.457Z,1010.15
2023-06-24T09:58:31.776Z,1010.23
2023-06-24T09:59:32.941Z,1010.26
2023-06-24T10:00:32.145Z,1010.23
2023-06-24T10:01:33.303Z,1010.25
2023-06-24T10:02:34.159Z,1010.31
2023-06-24T10:03:32.755Z,1010.28
2023-06-24T10:04:32.850Z,1010.32
2023-06-24T10:05:33.663Z,1010.32
2023-06-24T10:06:34.408Z,1010.32
2023-06-24T10:07:33.421Z,1010.32
2023-06-24T10:08:33.604Z,1010.35
2023-06-24T10:09:34.920Z,1010.37
2023-06-24T10:10:34.231Z,1010.31
2023-06-24T10:11:34.112Z,1010.33
2023-06-24T10:12:34.910Z,1010.36
2023-06-24T10:13:34.407Z,1010.36
2023-06-24T10:14:35.451Z,1010.29
2023-06-24T10:15:34.772Z,1010.38
2023-06-24T10:16:34.968Z,1010.34
2023-06-24T10:17:35.235Z,1010.30
2023-06-24T10:18:35.378Z,1010.28
2023-06-24T10:19:35.467Z,1010.27
2023-06-24T10:20:35.795Z,1010.17
2023-06-24T10:21:35.861Z,1010.14
2023-06-24T10:22:36.061Z,1010.09
2023-06-24T10:23:36.230Z,1010.04
2023-06-24T10:24:36.969Z,1009.99
2023-06-24T10:25:36.525Z,1009.96
2023-06-24T10:26:36.701Z,1010.00
2023-06-24T10:27:38.075Z,1009.89
2023-06-24T10:28:37.132Z,1009.86
2023-06-24T10:29:37.254Z,1009.77
2023-06-24T10:30:37.739Z,1009.69
2023-06-24T10:31:38.406Z,1009.62
2023-06-24T10:32:38.005Z,1009.63
2023-06-24T10:33:38.135Z,1009.64
2023-06-24T10:34:38.231Z,1009.48
2023-06-24T10:35:38.465Z,1009.47
2023-06-24T10:36:38.712Z,1009.35
2023-06-24T10:37:39.461Z,1009.25
2023-06-24T10:38:39.056Z,1009.18
2023-06-24T10:39:39.292Z,1009.13
2023-06-24T10:40:40.427Z,1009.05
2023-06-24T10:41:39.758Z,1008.99
2023-06-24T10:42:40.083Z,1008.90
2023-06-24T10:43:40.931Z,1008.87
2023-06-24T10:44:40.965Z,1008.84
2023-06-24T10:45:41.002Z,1008.80
2023-06-24T10:46:40.742Z,1008.72
2023-06-24T10:47:40.971Z,1008.74
2023-06-24T10:48:41.966Z,1008.70
2023-06-24T10:49:41.926Z,1008.71
2023-06-24T10:50:41.959Z,1008.68
2023-06-24T10:51:41.686Z,1008.71
2023-06-24T10:52:41.897Z,1008.67
2023-06-24T10:53:42.927Z,1008.65
2023-06-24T10:54:42.255Z,1008.61
2023-06-24T10:55:42.319Z,1008.56
2023-06-24T10:56:43.430Z,1008.58
2023-06-24T10:57:43.932Z,1008.54
2023-06-24T10:58:42.976Z,1008.57
2023-06-24T10:59:43.963Z,1008.53
2023-06-24T11:00:43.988Z,1008.48
2023-06-24T11:01:44.374Z,1008.49
2023-06-24T11:02:43.736Z,1008.48
2023-06-24T11:03:43.881Z,1008.45
2023-06-24T11:04:44.055Z,1008.39
2023-06-24T11:05:44.474Z,1008.41
2023-06-24T11:06:44.426Z,1008.32
2023-06-24T11:07:44.620Z,1008.29
2023-06-24T11:08:45.471Z,1008.26
2023-06-24T11:09:45.046Z,1008.26
2023-06-24T11:10:45.289Z,1008.23
2023-06-24T11:11:46.338Z,1008.33
2023-06-24T11:12:46.466Z,1008.27
2023-06-24T11:13:45.768Z,1008.23
2023-06-24T11:14:45.950Z,1008.18
2023-06-24T11:15:46.488Z,1008.18
2023-06-24T11:16:46.977Z,1008.22
2023-06-24T11:17:46.555Z,1008.23
2023-06-24T11:18:47.437Z,1008.25
2023-06-24T11:19:47.491Z,1008.28
2023-06-24T11:20:47.078Z,1008.27
2023-06-24T11:21:47.270Z,1008.23
2023-06-24T11:22:47.468Z,1008.23
2023-06-24T11:23:47.650Z,1008.17
2023-06-24T11:24:47.842Z,1008.28
2023-06-24T11:25:48.967Z,1008.23
2023-06-24T11:26:49.282Z,1008.21
2023-06-24T11:27:48.453Z,1008.13
2023-06-24T11:28:48.645Z,1008.19
2023-06-24T11:29:48.834Z,1008.18
2023-06-24T11:30:50.103Z,1008.16
2023-06-24T11:31:49.157Z,1008.05
2023-06-24T11:32:49.393Z,1008.05
2023-06-24T11:33:49.516Z,1008.16
2023-06-24T11:34:50.933Z,1008.20
2023-06-24T11:35:49.824Z,1008.20
2023-06-24T11:36:50.939Z,1008.24
2023-06-24T11:37:50.267Z,1008.25
2023-06-24T11:38:51.932Z,1008.33
2023-06-24T11:39:52.307Z,1008.33
2023-06-24T11:40:50.842Z,1008.23
2023-06-24T11:41:51.014Z,1008.24
2023-06-24T11:42:51.190Z,1008.30
2023-06-24T11:43:51.947Z,1008.21
2023-06-24T11:44:51.607Z,1008.17
2023-06-24T11:45:51.804Z,1008.14
2023-06-24T11:46:52.030Z,1008.23
2023-06-24T11:47:52.225Z,1008.22
2023-06-24T11:48:52.949Z,1008.23
2023-06-24T11:49:52.499Z,1008.28
2023-06-24T11:50:52.723Z,1008.34
2023-06-24T11:51:52.900Z,1008.37
2023-06-24T11:52:53.069Z,1008.41
2023-06-24T11:53:53.312Z,1008.42
2023-06-24T11:54:53.547Z,1008.45
2023-06-24T11:55:53.736Z,1008.53
2023-06-24T11:56:53.950Z,1008.47
2023-06-24T11:57:54.130Z,1008.54
2023-06-24T11:58:54.341Z,1008.56
2023-06-24T11:59:54.586Z,1008.58
2023-06-24T12:00:54.810Z,1008.54
2023-06-24T12:01:54.914Z,1008.63
2023-06-24T12:02:55.199Z,1008.60
2023-06-24T12:03:56.141Z,1008.66
2023-06-24T12:04:55.568Z,1008.62
2023-06-24T12:05:56.450Z,1008.75
2023-06-24T12:06:56.331Z,1008.74
2023-06-24T12:07:56.452Z,1008.74